Pagrindinis puslapis
METAR-TAF:

METAR-TAF

Oro uostai :

Sainte-Marie, Madagaskaras

platuma: 17-05S, ilguma: 049-49E, Aukštis: 2 m

Dabartinis oras

Ataskaita buvo paskelbta 14 valandos ir 33 minutes, ne 06:00 UTC
Vėjas 8 kt iš Pietų
Temperatūra 26°C
Drėgmė 54%
Slėgis 1021 hPa
Matomumas 10 km arba daugiau
Mažai debesys ne aukštis 1700 ft

METAR: FMMS 170600Z 19008KT 9999 FEW017 26/16 Q1021

Laikas: 23:33 (20:33 UTC)

Prognozė

Ataskaita buvo paskelbta 3 valandos ir 33 minutes, ne 17:00 UTC
Prognozė galioja nuo 17 metu 18 UTC su 18 metu 18 UTC
Vėjas kt iš Šiaurės
Matomumas 10 km arba daugiau
Mažai debesys ne aukštis 1700 ft
Išsisklaidę debesys ne aukštis 3300 ft
Tapsmas
nuo 18 metu 02 UTC su 18 metu 05 UTC
Vėjas 10 kt iš Pietų/Pietvakarių

TAF: FMMS 171700Z 1718/1818 00000KT 9999 FEW017 SCT033 BECMG 1802/1805 20010KT

Orai ataskaitas ir orų prognozės (METAR, TAF).

turimą stotys yra geltonos ir raudonos taškus žemėlapyje.

Perkelti pele per norėdami pamatyti stoties vardą.

Tada spustelėkite, norėdami matyti oro stebėjimo ir prognozės.

Norėdami pakeisti žemėlapį: spustelėkite ant žalios mygtukų su juodo kryžiaus žemyn,; žalią mygtuką su brūkšneliu, jei norite nutolinti; arba žalių rodyklių gretimoms žemėlapius.


METAR-TAF: